Walls, Mississippi
Current Conditions -  °F | °C
As of 8:54 AM on Friday 31 Oct 2014 (Local Time) from KMEM Reporting Station
Few Clouds Few Clouds  
Wind Chill: 12°   Ceiling: Unl
Heat Index: 12°   Visibility: 10mi
Dew Point:   Wind: 12mph
Humidity: 77%   Direction: 360°N
Pressure: 30.09"   Gusts: 18mph
Location:  34.94°N, 90.09°W
Report Text: KMEM 311354Z 36010G16KT 10SM FEW008 12/08 A3009 RMK AO2 SLP187 T01220083 $
Loading
Personal Weather Stations






























Interactive Weather Map
Tropical Storm Tracking
New forecast layout! Learn more

10-Day Weather Forecast

Advertisements
Track Severe Weather on mobile